sensor_id;sensor_type;location;lat;lon;timestamp;P1;durP1;ratioP1;P2;durP2;ratioP2
19111;SDS011;9688;51.906;8.376;2022-12-18T00:01:04;41.13;;;17.97;;
19111;SDS011;9688;51.906;8.376;2022-12-18T00:03:51;29.73;;;15.47;;
19111;SDS011;9688;51.906;8.376;2022-12-18T00:06:38;33.60;;;16.23;;
19111;SDS011;9688;51.906;8.376;2022-12-18T00:09:26;24.40;;;12.27;;
19111;SDS011;9688;51.906;8.376;2022-12-18T00:12:12;26.73;;;12.37;;
19111;SDS011;9688;51.906;8.376;2022-12-18T00:14:58;29.33;;;13.27;;
19111;SDS011;9688;51.906;8.376;2022-12-18T00:17:45;24.97;;;13.13;;
19111;SDS011;9688;51.906;8.376;2022-12-18T00:20:30;27.83;;;13.10;;
19111;SDS011;9688;51.906;8.376;2022-12-18T00:23:16;25.80;;;12.53;;
19111;SDS011;9688;51.906;8.376;2022-12-18T00:26:02;28.20;;;13.60;;
19111;SDS011;9688;51.906;8.376;2022-12-18T00:28:50;29.20;;;14.37;;
19111;SDS011;9688;51.906;8.376;2022-12-18T00:31:36;34.10;;;13.80;;
19111;SDS011;9688;51.906;8.376;2022-12-18T00:34:24;30.40;;;14.33;;
19111;SDS011;9688;51.906;8.376;2022-12-18T00:37:09;29.97;;;13.93;;
19111;SDS011;9688;51.906;8.376;2022-12-18T00:39:54;22.87;;;11.83;;
19111;SDS011;9688;51.906;8.376;2022-12-18T00:42:40;24.20;;;11.53;;
19111;SDS011;9688;51.906;8.376;2022-12-18T00:45:41;27.50;;;11.67;;
19111;SDS011;9688;51.906;8.376;2022-12-18T00:48:27;23.03;;;11.50;;
19111;SDS011;9688;51.906;8.376;2022-12-18T00:51:14;25.93;;;12.10;;
19111;SDS011;9688;51.906;8.376;2022-12-18T00:53:59;23.53;;;11.70;;
19111;SDS011;9688;51.906;8.376;2022-12-18T00:56:45;22.53;;;10.97;;
19111;SDS011;9688;51.906;8.376;2022-12-18T00:59:31;24.60;;;11.20;;
19111;SDS011;9688;51.906;8.376;2022-12-18T01:02:16;21.13;;;10.57;;
19111;SDS011;9688;51.906;8.376;2022-12-18T01:05:01;23.83;;;10.30;;
19111;SDS011;9688;51.906;8.376;2022-12-18T01:07:49;18.93;;;9.80;;
19111;SDS011;9688;51.906;8.376;2022-12-18T01:10:34;23.23;;;10.73;;
19111;SDS011;9688;51.906;8.376;2022-12-18T01:13:20;19.77;;;10.03;;
19111;SDS011;9688;51.906;8.376;2022-12-18T01:16:06;21.70;;;10.67;;
19111;SDS011;9688;51.906;8.376;2022-12-18T01:18:52;22.33;;;10.70;;
19111;SDS011;9688;51.906;8.376;2022-12-18T01:21:39;23.17;;;10.00;;
19111;SDS011;9688;51.906;8.376;2022-12-18T01:24:25;19.20;;;9.70;;
19111;SDS011;9688;51.906;8.376;2022-12-18T01:27:11;20.90;;;8.87;;
19111;SDS011;9688;51.906;8.376;2022-12-18T01:29:57;15.30;;;8.97;;
19111;SDS011;9688;51.906;8.376;2022-12-18T01:32:42;18.53;;;8.50;;
19111;SDS011;9688;51.906;8.376;2022-12-18T01:35:28;16.33;;;8.30;;
19111;SDS011;9688;51.906;8.376;2022-12-18T01:38:13;20.20;;;9.23;;
19111;SDS011;9688;51.906;8.376;2022-12-18T01:41:00;19.07;;;9.67;;
19111;SDS011;9688;51.906;8.376;2022-12-18T01:43:48;19.93;;;9.40;;
19111;SDS011;9688;51.906;8.376;2022-12-18T01:46:35;17.17;;;9.37;;
19111;SDS011;9688;51.906;8.376;2022-12-18T01:49:20;17.70;;;9.10;;
19111;SDS011;9688;51.906;8.376;2022-12-18T01:52:06;20.20;;;9.10;;
19111;SDS011;9688;51.906;8.376;2022-12-18T01:54:52;18.07;;;8.83;;
19111;SDS011;9688;51.906;8.376;2022-12-18T01:57:39;13.83;;;8.17;;
19111;SDS011;9688;51.906;8.376;2022-12-18T02:00:26;15.53;;;8.40;;
19111;SDS011;9688;51.906;8.376;2022-12-18T02:03:13;19.87;;;8.63;;
19111;SDS011;9688;51.906;8.376;2022-12-18T02:06:05;18.43;;;8.03;;
19111;SDS011;9688;51.906;8.376;2022-12-18T02:08:58;17.27;;;7.87;;
19111;SDS011;9688;51.906;8.376;2022-12-18T02:11:55;15.30;;;7.57;;
19111;SDS011;9688;51.906;8.376;2022-12-18T02:14:52;13.07;;;7.63;;
19111;SDS011;9688;51.906;8.376;2022-12-18T02:17:45;17.93;;;7.77;;
19111;SDS011;9688;51.906;8.376;2022-12-18T02:20:38;12.60;;;7.27;;
19111;SDS011;9688;51.906;8.376;2022-12-18T02:23:35;14.33;;;7.50;;
19111;SDS011;9688;51.906;8.376;2022-12-18T02:26:34;11.47;;;6.27;;
19111;SDS011;9688;51.906;8.376;2022-12-18T02:29:24;15.97;;;7.10;;
19111;SDS011;9688;51.906;8.376;2022-12-18T02:32:13;16.57;;;7.67;;
19111;SDS011;9688;51.906;8.376;2022-12-18T02:35:05;12.30;;;7.07;;
19111;SDS011;9688;51.906;8.376;2022-12-18T02:37:53;14.67;;;7.70;;
19111;SDS011;9688;51.906;8.376;2022-12-18T02:40:40;19.47;;;7.40;;
19111;SDS011;9688;51.906;8.376;2022-12-18T02:43:29;15.87;;;6.90;;
19111;SDS011;9688;51.906;8.376;2022-12-18T02:46:23;15.37;;;7.50;;
19111;SDS011;9688;51.906;8.376;2022-12-18T02:49:17;14.50;;;6.87;;
19111;SDS011;9688;51.906;8.376;2022-12-18T02:52:13;18.73;;;7.17;;
19111;SDS011;9688;51.906;8.376;2022-12-18T02:55:19;13.73;;;7.20;;
19111;SDS011;9688;51.906;8.376;2022-12-18T02:58:14;10.90;;;6.07;;
19111;SDS011;9688;51.906;8.376;2022-12-18T03:01:06;10.60;;;6.47;;
19111;SDS011;9688;51.906;8.376;2022-12-18T03:03:57;10.60;;;6.23;;
19111;SDS011;9688;51.906;8.376;2022-12-18T03:06:48;12.03;;;5.90;;
19111;SDS011;9688;51.906;8.376;2022-12-18T03:09:38;10.03;;;5.67;;
19111;SDS011;9688;51.906;8.376;2022-12-18T03:12:30;9.80;;;5.83;;
19111;SDS011;9688;51.906;8.376;2022-12-18T03:15:21;10.37;;;5.50;;
19111;SDS011;9688;51.906;8.376;2022-12-18T03:18:14;10.53;;;6.03;;
19111;SDS011;9688;51.906;8.376;2022-12-18T03:21:05;12.00;;;5.90;;
19111;SDS011;9688;51.906;8.376;2022-12-18T03:23:55;10.13;;;4.83;;
19111;SDS011;9688;51.906;8.376;2022-12-18T03:26:42;9.87;;;5.37;;
19111;SDS011;9688;51.906;8.376;2022-12-18T03:29:32;12.27;;;5.73;;
19111;SDS011;9688;51.906;8.376;2022-12-18T03:32:23;11.77;;;5.40;;
19111;SDS011;9688;51.906;8.376;2022-12-18T03:35:13;8.47;;;5.50;;
19111;SDS011;9688;51.906;8.376;2022-12-18T03:38:01;8.73;;;5.30;;
19111;SDS011;9688;51.906;8.376;2022-12-18T03:40:50;10.97;;;4.70;;
19111;SDS011;9688;51.906;8.376;2022-12-18T03:43:42;9.90;;;5.30;;
19111;SDS011;9688;51.906;8.376;2022-12-18T03:46:36;9.73;;;5.37;;
19111;SDS011;9688;51.906;8.376;2022-12-18T03:49:33;9.10;;;5.03;;
19111;SDS011;9688;51.906;8.376;2022-12-18T03:52:26;10.83;;;5.37;;
19111;SDS011;9688;51.906;8.376;2022-12-18T03:55:15;9.83;;;5.20;;
19111;SDS011;9688;51.906;8.376;2022-12-18T03:58:04;9.60;;;5.13;;
19111;SDS011;9688;51.906;8.376;2022-12-18T04:00:52;11.57;;;5.20;;
19111;SDS011;9688;51.906;8.376;2022-12-18T04:03:41;11.57;;;5.20;;
19111;SDS011;9688;51.906;8.376;2022-12-18T04:06:29;12.57;;;5.43;;
19111;SDS011;9688;51.906;8.376;2022-12-18T04:09:22;9.73;;;5.40;;
19111;SDS011;9688;51.906;8.376;2022-12-18T04:12:08;10.13;;;5.13;;
19111;SDS011;9688;51.906;8.376;2022-12-18T04:14:54;9.77;;;4.70;;
19111;SDS011;9688;51.906;8.376;2022-12-18T04:17:43;8.73;;;4.43;;
19111;SDS011;9688;51.906;8.376;2022-12-18T04:20:32;9.67;;;4.93;;
19111;SDS011;9688;51.906;8.376;2022-12-18T04:23:18;9.63;;;5.10;;
19111;SDS011;9688;51.906;8.376;2022-12-18T04:26:05;9.60;;;4.83;;
19111;SDS011;9688;51.906;8.376;2022-12-18T04:28:51;10.67;;;4.83;;
19111;SDS011;9688;51.906;8.376;2022-12-18T04:31:36;8.93;;;4.83;;
19111;SDS011;9688;51.906;8.376;2022-12-18T04:34:22;8.33;;;4.60;;
19111;SDS011;9688;51.906;8.376;2022-12-18T04:37:07;6.23;;;5.00;;
19111;SDS011;9688;51.906;8.376;2022-12-18T04:39:53;10.53;;;4.90;;
19111;SDS011;9688;51.906;8.376;2022-12-18T04:42:40;9.00;;;4.93;;
19111;SDS011;9688;51.906;8.376;2022-12-18T04:45:26;9.33;;;4.60;;
19111;SDS011;9688;51.906;8.376;2022-12-18T04:48:11;8.53;;;4.67;;
19111;SDS011;9688;51.906;8.376;2022-12-18T04:50:57;11.13;;;4.97;;
19111;SDS011;9688;51.906;8.376;2022-12-18T04:53:42;12.67;;;5.30;;
19111;SDS011;9688;51.906;8.376;2022-12-18T04:56:29;11.47;;;4.57;;
19111;SDS011;9688;51.906;8.376;2022-12-18T04:59:17;8.93;;;5.23;;
19111;SDS011;9688;51.906;8.376;2022-12-18T05:02:03;6.63;;;4.60;;
19111;SDS011;9688;51.906;8.376;2022-12-18T05:04:48;9.23;;;4.80;;
19111;SDS011;9688;51.906;8.376;2022-12-18T05:07:34;7.97;;;4.50;;
19111;SDS011;9688;51.906;8.376;2022-12-18T05:10:19;8.67;;;4.80;;
19111;SDS011;9688;51.906;8.376;2022-12-18T05:13:05;9.17;;;4.93;;
19111;SDS011;9688;51.906;8.376;2022-12-18T05:15:52;8.83;;;5.07;;
19111;SDS011;9688;51.906;8.376;2022-12-18T05:18:39;8.23;;;4.43;;
19111;SDS011;9688;51.906;8.376;2022-12-18T05:21:24;8.27;;;4.90;;
19111;SDS011;9688;51.906;8.376;2022-12-18T05:24:10;10.83;;;4.90;;
19111;SDS011;9688;51.906;8.376;2022-12-18T05:26:55;7.80;;;4.57;;
19111;SDS011;9688;51.906;8.376;2022-12-18T05:29:41;9.93;;;5.27;;
19111;SDS011;9688;51.906;8.376;2022-12-18T05:32:32;10.03;;;5.90;;
19111;SDS011;9688;51.906;8.376;2022-12-18T05:35:18;8.93;;;5.40;;
19111;SDS011;9688;51.906;8.376;2022-12-18T05:38:04;11.63;;;4.97;;
19111;SDS011;9688;51.906;8.376;2022-12-18T05:40:50;10.40;;;5.20;;
19111;SDS011;9688;51.906;8.376;2022-12-18T05:43:36;10.90;;;4.90;;
19111;SDS011;9688;51.906;8.376;2022-12-18T05:46:23;9.10;;;5.23;;
19111;SDS011;9688;51.906;8.376;2022-12-18T05:49:10;12.20;;;5.23;;
19111;SDS011;9688;51.906;8.376;2022-12-18T05:51:56;7.23;;;5.50;;
19111;SDS011;9688;51.906;8.376;2022-12-18T05:54:42;13.37;;;5.80;;
19111;SDS011;9688;51.906;8.376;2022-12-18T05:57:27;11.70;;;5.57;;
19111;SDS011;9688;51.906;8.376;2022-12-18T06:00:13;12.23;;;5.20;;
19111;SDS011;9688;51.906;8.376;2022-12-18T06:03:01;10.60;;;5.27;;
19111;SDS011;9688;51.906;8.376;2022-12-18T06:05:49;9.27;;;5.33;;
19111;SDS011;9688;51.906;8.376;2022-12-18T06:08:34;11.77;;;5.93;;
19111;SDS011;9688;51.906;8.376;2022-12-18T06:11:20;8.53;;;5.17;;
19111;SDS011;9688;51.906;8.376;2022-12-18T06:14:08;9.93;;;5.53;;
19111;SDS011;9688;51.906;8.376;2022-12-18T06:16:55;12.00;;;5.40;;
19111;SDS011;9688;51.906;8.376;2022-12-18T06:19:40;11.70;;;5.33;;
19111;SDS011;9688;51.906;8.376;2022-12-18T06:22:52;10.27;;;5.97;;
19111;SDS011;9688;51.906;8.376;2022-12-18T06:25:38;8.87;;;5.10;;
19111;SDS011;9688;51.906;8.376;2022-12-18T06:28:24;12.47;;;6.23;;
19111;SDS011;9688;51.906;8.376;2022-12-18T06:31:10;10.50;;;5.70;;
19111;SDS011;9688;51.906;8.376;2022-12-18T06:33:56;11.20;;;5.87;;
19111;SDS011;9688;51.906;8.376;2022-12-18T06:36:41;13.83;;;6.37;;
19111;SDS011;9688;51.906;8.376;2022-12-18T06:39:28;12.50;;;5.97;;
19111;SDS011;9688;51.906;8.376;2022-12-18T06:42:14;13.80;;;6.30;;
19111;SDS011;9688;51.906;8.376;2022-12-18T06:45:00;13.13;;;6.37;;
19111;SDS011;9688;51.906;8.376;2022-12-18T06:47:45;17.27;;;6.90;;
19111;SDS011;9688;51.906;8.376;2022-12-18T06:50:31;11.63;;;6.07;;
19111;SDS011;9688;51.906;8.376;2022-12-18T06:53:16;15.20;;;6.43;;
19111;SDS011;9688;51.906;8.376;2022-12-18T06:56:04;11.03;;;5.90;;
19111;SDS011;9688;51.906;8.376;2022-12-18T06:58:52;10.60;;;6.17;;
19111;SDS011;9688;51.906;8.376;2022-12-18T07:01:37;10.70;;;6.13;;
19111;SDS011;9688;51.906;8.376;2022-12-18T07:04:26;13.80;;;6.23;;
19111;SDS011;9688;51.906;8.376;2022-12-18T07:07:13;14.13;;;6.63;;
19111;SDS011;9688;51.906;8.376;2022-12-18T07:09:59;12.17;;;6.27;;
19111;SDS011;9688;51.906;8.376;2022-12-18T07:12:53;11.80;;;6.30;;
19111;SDS011;9688;51.906;8.376;2022-12-18T07:15:40;9.50;;;5.80;;
19111;SDS011;9688;51.906;8.376;2022-12-18T07:18:26;10.33;;;5.93;;
19111;SDS011;9688;51.906;8.376;2022-12-18T07:21:12;15.30;;;6.97;;
19111;SDS011;9688;51.906;8.376;2022-12-18T07:24:00;11.93;;;6.27;;
19111;SDS011;9688;51.906;8.376;2022-12-18T07:26:46;13.00;;;6.40;;
19111;SDS011;9688;51.906;8.376;2022-12-18T07:29:33;16.33;;;6.13;;
19111;SDS011;9688;51.906;8.376;2022-12-18T07:32:18;9.60;;;6.03;;
19111;SDS011;9688;51.906;8.376;2022-12-18T07:35:04;13.73;;;6.73;;
19111;SDS011;9688;51.906;8.376;2022-12-18T07:37:50;11.37;;;5.70;;
19111;SDS011;9688;51.906;8.376;2022-12-18T07:40:36;12.93;;;6.20;;
19111;SDS011;9688;51.906;8.376;2022-12-18T07:43:21;12.60;;;6.37;;
19111;SDS011;9688;51.906;8.376;2022-12-18T07:46:08;11.90;;;6.60;;
19111;SDS011;9688;51.906;8.376;2022-12-18T07:48:55;10.83;;;5.50;;
19111;SDS011;9688;51.906;8.376;2022-12-18T07:51:43;12.43;;;6.07;;
19111;SDS011;9688;51.906;8.376;2022-12-18T07:54:33;13.00;;;6.53;;
19111;SDS011;9688;51.906;8.376;2022-12-18T07:57:18;13.27;;;5.87;;
19111;SDS011;9688;51.906;8.376;2022-12-18T08:00:05;16.83;;;6.33;;
19111;SDS011;9688;51.906;8.376;2022-12-18T08:02:53;12.03;;;6.63;;
19111;SDS011;9688;51.906;8.376;2022-12-18T08:05:39;14.97;;;5.87;;
19111;SDS011;9688;51.906;8.376;2022-12-18T08:08:24;13.37;;;6.20;;
19111;SDS011;9688;51.906;8.376;2022-12-18T08:11:10;14.47;;;6.03;;
19111;SDS011;9688;51.906;8.376;2022-12-18T08:13:55;11.97;;;5.43;;
19111;SDS011;9688;51.906;8.376;2022-12-18T08:16:41;10.30;;;5.63;;
19111;SDS011;9688;51.906;8.376;2022-12-18T08:19:28;11.20;;;5.77;;
19111;SDS011;9688;51.906;8.376;2022-12-18T08:22:13;11.60;;;5.37;;
19111;SDS011;9688;51.906;8.376;2022-12-18T08:24:59;14.40;;;6.30;;
19111;SDS011;9688;51.906;8.376;2022-12-18T08:27:44;11.47;;;5.50;;
19111;SDS011;9688;51.906;8.376;2022-12-18T08:30:30;15.37;;;6.57;;
19111;SDS011;9688;51.906;8.376;2022-12-18T08:33:15;12.43;;;5.87;;
19111;SDS011;9688;51.906;8.376;2022-12-18T08:36:03;13.33;;;6.23;;
19111;SDS011;9688;51.906;8.376;2022-12-18T08:38:50;13.23;;;5.93;;
19111;SDS011;9688;51.906;8.376;2022-12-18T08:41:35;13.70;;;6.13;;
19111;SDS011;9688;51.906;8.376;2022-12-18T08:44:21;10.33;;;5.97;;
19111;SDS011;9688;51.906;8.376;2022-12-18T08:47:24;14.43;;;6.70;;
19111;SDS011;9688;51.906;8.376;2022-12-18T08:50:10;13.60;;;6.50;;
19111;SDS011;9688;51.906;8.376;2022-12-18T08:53:00;11.73;;;5.50;;
19111;SDS011;9688;51.906;8.376;2022-12-18T08:55:46;12.77;;;6.23;;
19111;SDS011;9688;51.906;8.376;2022-12-18T08:58:31;10.47;;;6.03;;
19111;SDS011;9688;51.906;8.376;2022-12-18T09:01:17;13.73;;;6.23;;
19111;SDS011;9688;51.906;8.376;2022-12-18T09:04:02;12.83;;;6.03;;
19111;SDS011;9688;51.906;8.376;2022-12-18T09:06:48;12.03;;;6.00;;
19111;SDS011;9688;51.906;8.376;2022-12-18T09:09:37;12.03;;;6.07;;
19111;SDS011;9688;51.906;8.376;2022-12-18T09:12:23;14.20;;;6.37;;
19111;SDS011;9688;51.906;8.376;2022-12-18T09:15:12;14.07;;;6.33;;
19111;SDS011;9688;51.906;8.376;2022-12-18T09:17:59;10.50;;;6.83;;
19111;SDS011;9688;51.906;8.376;2022-12-18T09:20:45;12.87;;;7.23;;
19111;SDS011;9688;51.906;8.376;2022-12-18T09:23:31;12.47;;;6.27;;
19111;SDS011;9688;51.906;8.376;2022-12-18T09:26:18;11.40;;;6.07;;
19111;SDS011;9688;51.906;8.376;2022-12-18T09:29:03;10.27;;;6.10;;
19111;SDS011;9688;51.906;8.376;2022-12-18T09:31:51;10.83;;;5.90;;
19111;SDS011;9688;51.906;8.376;2022-12-18T09:34:36;10.77;;;6.00;;
19111;SDS011;9688;51.906;8.376;2022-12-18T09:37:21;12.37;;;6.43;;
19111;SDS011;9688;51.906;8.376;2022-12-18T09:40:12;13.37;;;6.57;;
19111;SDS011;9688;51.906;8.376;2022-12-18T09:43:02;10.67;;;6.23;;
19111;SDS011;9688;51.906;8.376;2022-12-18T09:45:50;11.33;;;6.50;;
19111;SDS011;9688;51.906;8.376;2022-12-18T09:48:41;11.00;;;6.17;;
19111;SDS011;9688;51.906;8.376;2022-12-18T09:51:30;13.40;;;6.00;;
19111;SDS011;9688;51.906;8.376;2022-12-18T09:54:21;15.23;;;6.70;;
19111;SDS011;9688;51.906;8.376;2022-12-18T09:57:13;12.87;;;6.30;;
19111;SDS011;9688;51.906;8.376;2022-12-18T10:00:09;13.87;;;7.40;;
19111;SDS011;9688;51.906;8.376;2022-12-18T10:03:02;11.30;;;6.00;;
19111;SDS011;9688;51.906;8.376;2022-12-18T10:05:57;12.93;;;6.50;;
19111;SDS011;9688;51.906;8.376;2022-12-18T10:08:52;12.10;;;6.30;;
19111;SDS011;9688;51.906;8.376;2022-12-18T10:11:48;11.47;;;5.73;;
19111;SDS011;9688;51.906;8.376;2022-12-18T10:14:42;9.33;;;5.87;;
19111;SDS011;9688;51.906;8.376;2022-12-18T10:17:35;9.83;;;5.53;;
19111;SDS011;9688;51.906;8.376;2022-12-18T10:20:29;10.80;;;6.43;;
19111;SDS011;9688;51.906;8.376;2022-12-18T10:23:20;10.60;;;5.97;;
19111;SDS011;9688;51.906;8.376;2022-12-18T10:26:11;9.13;;;5.40;;
19111;SDS011;9688;51.906;8.376;2022-12-18T10:28:57;10.13;;;5.77;;
19111;SDS011;9688;51.906;8.376;2022-12-18T10:31:43;10.40;;;5.47;;
19111;SDS011;9688;51.906;8.376;2022-12-18T10:34:31;10.60;;;5.57;;
19111;SDS011;9688;51.906;8.376;2022-12-18T10:37:16;9.90;;;5.87;;
19111;SDS011;9688;51.906;8.376;2022-12-18T10:40:08;10.73;;;5.73;;
19111;SDS011;9688;51.906;8.376;2022-12-18T10:43:05;12.37;;;5.17;;
19111;SDS011;9688;51.906;8.376;2022-12-18T10:46:00;8.13;;;5.60;;
19111;SDS011;9688;51.906;8.376;2022-12-18T10:48:49;10.07;;;5.83;;
19111;SDS011;9688;51.906;8.376;2022-12-18T10:51:39;10.50;;;6.10;;
19111;SDS011;9688;51.906;8.376;2022-12-18T10:54:24;6.53;;;4.87;;
19111;SDS011;9688;51.906;8.376;2022-12-18T10:57:14;12.80;;;5.77;;
19111;SDS011;9688;51.906;8.376;2022-12-18T11:03:08;7.87;;;5.10;;
19111;SDS011;9688;51.906;8.376;2022-12-18T11:06:16;11.80;;;6.43;;
19111;SDS011;9688;51.906;8.376;2022-12-18T11:09:04;9.20;;;4.97;;
19111;SDS011;9688;51.906;8.376;2022-12-18T11:11:55;9.07;;;5.03;;
19111;SDS011;9688;51.906;8.376;2022-12-18T11:14:43;9.30;;;5.63;;
19111;SDS011;9688;51.906;8.376;2022-12-18T11:17:33;8.07;;;5.43;;
19111;SDS011;9688;51.906;8.376;2022-12-18T11:20:23;8.13;;;5.37;;
19111;SDS011;9688;51.906;8.376;2022-12-18T11:23:15;8.97;;;5.00;;
19111;SDS011;9688;51.906;8.376;2022-12-18T11:26:03;8.67;;;4.30;;
19111;SDS011;9688;51.906;8.376;2022-12-18T11:28:51;8.70;;;4.70;;
19111;SDS011;9688;51.906;8.376;2022-12-18T11:31:37;9.97;;;4.97;;
19111;SDS011;9688;51.906;8.376;2022-12-18T11:34:24;9.80;;;5.00;;
19111;SDS011;9688;51.906;8.376;2022-12-18T11:37:13;6.13;;;4.50;;
19111;SDS011;9688;51.906;8.376;2022-12-18T11:40:06;8.90;;;5.13;;
19111;SDS011;9688;51.906;8.376;2022-12-18T11:43:02;7.67;;;4.80;;
19111;SDS011;9688;51.906;8.376;2022-12-18T11:45:55;8.23;;;4.40;;
19111;SDS011;9688;51.906;8.376;2022-12-18T11:48:45;6.07;;;4.27;;
19111;SDS011;9688;51.906;8.376;2022-12-18T11:51:36;7.10;;;4.50;;
19111;SDS011;9688;51.906;8.376;2022-12-18T11:54:28;6.93;;;4.67;;
19111;SDS011;9688;51.906;8.376;2022-12-18T11:57:16;7.47;;;4.50;;
19111;SDS011;9688;51.906;8.376;2022-12-18T12:00:15;7.47;;;4.50;;
19111;SDS011;9688;51.906;8.376;2022-12-18T12:06:21;8.30;;;4.37;;
19111;SDS011;9688;51.906;8.376;2022-12-18T12:09:17;7.63;;;4.30;;
19111;SDS011;9688;51.906;8.376;2022-12-18T12:12:16;6.83;;;4.30;;
19111;SDS011;9688;51.906;8.376;2022-12-18T12:15:41;6.47;;;4.33;;
19111;SDS011;9688;51.906;8.376;2022-12-18T12:18:36;9.57;;;4.53;;
19111;SDS011;9688;51.906;8.376;2022-12-18T12:21:35;6.67;;;3.90;;
19111;SDS011;9688;51.906;8.376;2022-12-18T12:24:27;7.53;;;5.07;;
19111;SDS011;9688;51.906;8.376;2022-12-18T12:27:22;12.40;;;4.33;;
19111;SDS011;9688;51.906;8.376;2022-12-18T12:30:20;8.27;;;4.33;;
19111;SDS011;9688;51.906;8.376;2022-12-18T12:33:16;6.43;;;4.50;;
19111;SDS011;9688;51.906;8.376;2022-12-18T12:36:17;8.97;;;4.17;;
19111;SDS011;9688;51.906;8.376;2022-12-18T12:39:12;10.60;;;4.60;;
19111;SDS011;9688;51.906;8.376;2022-12-18T12:42:03;7.00;;;4.07;;
19111;SDS011;9688;51.906;8.376;2022-12-18T12:45:09;5.23;;;4.07;;
19111;SDS011;9688;51.906;8.376;2022-12-18T12:48:02;7.20;;;4.17;;
19111;SDS011;9688;51.906;8.376;2022-12-18T12:50:53;7.77;;;3.90;;
19111;SDS011;9688;51.906;8.376;2022-12-18T12:53:43;7.57;;;4.20;;
19111;SDS011;9688;51.906;8.376;2022-12-18T12:56:31;10.43;;;3.93;;
19111;SDS011;9688;51.906;8.376;2022-12-18T12:59:27;5.83;;;4.20;;
19111;SDS011;9688;51.906;8.376;2022-12-18T13:02:18;7.43;;;4.40;;
19111;SDS011;9688;51.906;8.376;2022-12-18T13:05:09;6.00;;;4.33;;
19111;SDS011;9688;51.906;8.376;2022-12-18T13:08:05;6.43;;;4.03;;
19111;SDS011;9688;51.906;8.376;2022-12-18T13:10:52;6.83;;;4.13;;
19111;SDS011;9688;51.906;8.376;2022-12-18T13:14:00;5.73;;;3.77;;
19111;SDS011;9688;51.906;8.376;2022-12-18T13:16:45;7.63;;;4.43;;
19111;SDS011;9688;51.906;8.376;2022-12-18T13:19:30;8.20;;;4.57;;
19111;SDS011;9688;51.906;8.376;2022-12-18T13:22:20;5.07;;;3.87;;
19111;SDS011;9688;51.906;8.376;2022-12-18T13:28:16;6.73;;;4.50;;
19111;SDS011;9688;51.906;8.376;2022-12-18T13:31:03;7.67;;;4.10;;
19111;SDS011;9688;51.906;8.376;2022-12-18T13:33:48;6.30;;;4.10;;
19111;SDS011;9688;51.906;8.376;2022-12-18T13:36:35;6.07;;;4.30;;
19111;SDS011;9688;51.906;8.376;2022-12-18T13:39:24;7.70;;;4.10;;
19111;SDS011;9688;51.906;8.376;2022-12-18T13:45:44;6.70;;;4.00;;
19111;SDS011;9688;51.906;8.376;2022-12-18T13:48:33;7.67;;;4.63;;
19111;SDS011;9688;51.906;8.376;2022-12-18T13:51:23;5.67;;;4.07;;
19111;SDS011;9688;51.906;8.376;2022-12-18T13:54:13;7.10;;;4.10;;
19111;SDS011;9688;51.906;8.376;2022-12-18T13:57:05;7.00;;;4.07;;
19111;SDS011;9688;51.906;8.376;2022-12-18T14:00:26;6.87;;;4.03;;
19111;SDS011;9688;51.906;8.376;2022-12-18T14:03:20;5.33;;;4.30;;
19111;SDS011;9688;51.906;8.376;2022-12-18T14:06:10;8.63;;;4.37;;
19111;SDS011;9688;51.906;8.376;2022-12-18T14:08:58;5.23;;;3.60;;
19111;SDS011;9688;51.906;8.376;2022-12-18T14:11:46;12.70;;;4.00;;
19111;SDS011;9688;51.906;8.376;2022-12-18T14:14:33;6.83;;;4.00;;
19111;SDS011;9688;51.906;8.376;2022-12-18T14:17:19;7.60;;;4.17;;
19111;SDS011;9688;51.906;8.376;2022-12-18T14:20:13;9.10;;;4.07;;
19111;SDS011;9688;51.906;8.376;2022-12-18T14:23:00;6.60;;;3.57;;
19111;SDS011;9688;51.906;8.376;2022-12-18T14:25:46;6.33;;;3.80;;
19111;SDS011;9688;51.906;8.376;2022-12-18T14:28:32;6.37;;;3.70;;
19111;SDS011;9688;51.906;8.376;2022-12-18T14:31:18;5.40;;;4.00;;
19111;SDS011;9688;51.906;8.376;2022-12-18T14:34:10;6.07;;;3.70;;
19111;SDS011;9688;51.906;8.376;2022-12-18T14:37:04;7.47;;;3.83;;
19111;SDS011;9688;51.906;8.376;2022-12-18T14:39:54;9.50;;;4.07;;
19111;SDS011;9688;51.906;8.376;2022-12-18T14:42:41;6.27;;;3.60;;
19111;SDS011;9688;51.906;8.376;2022-12-18T14:45:34;8.10;;;3.87;;
19111;SDS011;9688;51.906;8.376;2022-12-18T14:48:21;8.67;;;4.30;;
19111;SDS011;9688;51.906;8.376;2022-12-18T14:51:18;5.90;;;4.03;;
19111;SDS011;9688;51.906;8.376;2022-12-18T14:54:06;5.80;;;3.90;;
19111;SDS011;9688;51.906;8.376;2022-12-18T14:57:02;5.87;;;3.93;;
19111;SDS011;9688;51.906;8.376;2022-12-18T14:59:49;8.10;;;4.00;;
19111;SDS011;9688;51.906;8.376;2022-12-18T15:02:35;7.27;;;4.70;;
19111;SDS011;9688;51.906;8.376;2022-12-18T15:05:24;7.27;;;4.40;;
19111;SDS011;9688;51.906;8.376;2022-12-18T15:08:29;12.77;;;4.53;;
19111;SDS011;9688;51.906;8.376;2022-12-18T15:11:25;7.80;;;4.43;;
19111;SDS011;9688;51.906;8.376;2022-12-18T15:14:22;8.77;;;4.47;;
19111;SDS011;9688;51.906;8.376;2022-12-18T15:17:29;6.90;;;4.13;;
19111;SDS011;9688;51.906;8.376;2022-12-18T15:20:15;7.90;;;4.60;;
19111;SDS011;9688;51.906;8.376;2022-12-18T15:23:00;16.20;;;5.23;;
19111;SDS011;9688;51.906;8.376;2022-12-18T15:25:48;5.83;;;4.37;;
19111;SDS011;9688;51.906;8.376;2022-12-18T15:28:43;11.80;;;5.60;;
19111;SDS011;9688;51.906;8.376;2022-12-18T15:31:31;7.47;;;5.03;;
19111;SDS011;9688;51.906;8.376;2022-12-18T15:34:19;10.03;;;5.30;;
19111;SDS011;9688;51.906;8.376;2022-12-18T15:37:06;8.87;;;5.17;;
19111;SDS011;9688;51.906;8.376;2022-12-18T15:39:52;8.43;;;5.10;;
19111;SDS011;9688;51.906;8.376;2022-12-18T15:42:40;6.60;;;4.70;;
19111;SDS011;9688;51.906;8.376;2022-12-18T15:45:44;8.00;;;4.73;;
19111;SDS011;9688;51.906;8.376;2022-12-18T15:48:30;8.63;;;4.90;;
19111;SDS011;9688;51.906;8.376;2022-12-18T15:51:18;8.47;;;4.83;;
19111;SDS011;9688;51.906;8.376;2022-12-18T15:54:06;11.63;;;5.73;;
19111;SDS011;9688;51.906;8.376;2022-12-18T15:56:56;13.33;;;5.50;;
19111;SDS011;9688;51.906;8.376;2022-12-18T16:00:10;8.77;;;4.77;;
19111;SDS011;9688;51.906;8.376;2022-12-18T16:02:59;8.50;;;5.50;;
19111;SDS011;9688;51.906;8.376;2022-12-18T16:05:44;12.53;;;5.67;;
19111;SDS011;9688;51.906;8.376;2022-12-18T16:08:30;12.83;;;6.60;;
19111;SDS011;9688;51.906;8.376;2022-12-18T16:11:20;11.00;;;6.10;;
19111;SDS011;9688;51.906;8.376;2022-12-18T16:14:22;12.87;;;6.40;;
19111;SDS011;9688;51.906;8.376;2022-12-18T16:17:12;13.33;;;6.47;;
19111;SDS011;9688;51.906;8.376;2022-12-18T16:19:58;13.23;;;6.10;;
19111;SDS011;9688;51.906;8.376;2022-12-18T16:22:43;12.43;;;6.40;;
19111;SDS011;9688;51.906;8.376;2022-12-18T16:25:30;14.10;;;7.60;;
19111;SDS011;9688;51.906;8.376;2022-12-18T16:28:16;16.40;;;7.30;;
19111;SDS011;9688;51.906;8.376;2022-12-18T16:31:01;15.00;;;7.47;;
19111;SDS011;9688;51.906;8.376;2022-12-18T16:33:48;15.00;;;7.07;;
19111;SDS011;9688;51.906;8.376;2022-12-18T16:36:34;15.67;;;7.30;;
19111;SDS011;9688;51.906;8.376;2022-12-18T16:39:19;14.70;;;6.70;;
19111;SDS011;9688;51.906;8.376;2022-12-18T16:42:06;15.80;;;7.20;;
19111;SDS011;9688;51.906;8.376;2022-12-18T16:44:56;13.17;;;6.77;;
19111;SDS011;9688;51.906;8.376;2022-12-18T16:47:41;18.70;;;7.10;;
19111;SDS011;9688;51.906;8.376;2022-12-18T16:50:29;12.80;;;6.67;;
19111;SDS011;9688;51.906;8.376;2022-12-18T16:53:15;13.83;;;7.73;;
19111;SDS011;9688;51.906;8.376;2022-12-18T16:56:02;12.83;;;6.70;;
19111;SDS011;9688;51.906;8.376;2022-12-18T16:58:49;12.67;;;7.27;;
19111;SDS011;9688;51.906;8.376;2022-12-18T17:01:36;12.57;;;7.20;;
19111;SDS011;9688;51.906;8.376;2022-12-18T17:04:22;16.33;;;7.87;;
19111;SDS011;9688;51.906;8.376;2022-12-18T17:07:09;20.00;;;9.17;;
19111;SDS011;9688;51.906;8.376;2022-12-18T17:09:55;20.03;;;8.80;;
19111;SDS011;9688;51.906;8.376;2022-12-18T17:12:41;17.63;;;8.93;;
19111;SDS011;9688;51.906;8.376;2022-12-18T17:15:29;13.30;;;8.23;;
19111;SDS011;9688;51.906;8.376;2022-12-18T17:18:18;16.93;;;7.97;;